sensor_id;sensor_type;location;lat;lon;timestamp;P1;durP1;ratioP1;P2;durP2;ratioP2
17510;SDS011;8873;48.818;9.422;2023-05-15T00:00:56;8.50;;;5.45;;
17510;SDS011;8873;48.818;9.422;2023-05-15T00:03:24;8.00;;;5.78;;
17510;SDS011;8873;48.818;9.422;2023-05-15T00:05:56;8.48;;;5.40;;
17510;SDS011;8873;48.818;9.422;2023-05-15T00:08:23;10.40;;;5.82;;
17510;SDS011;8873;48.818;9.422;2023-05-15T00:10:51;9.00;;;5.72;;
17510;SDS011;8873;48.818;9.422;2023-05-15T00:13:27;6.45;;;4.88;;
17510;SDS011;8873;48.818;9.422;2023-05-15T00:15:55;10.80;;;5.00;;
17510;SDS011;8873;48.818;9.422;2023-05-15T00:18:23;15.70;;;5.97;;
17510;SDS011;8873;48.818;9.422;2023-05-15T00:20:50;8.52;;;5.63;;
17510;SDS011;8873;48.818;9.422;2023-05-15T00:23:20;9.75;;;5.30;;
17510;SDS011;8873;48.818;9.422;2023-05-15T00:25:47;6.68;;;5.20;;
17510;SDS011;8873;48.818;9.422;2023-05-15T00:28:15;9.10;;;5.82;;
17510;SDS011;8873;48.818;9.422;2023-05-15T00:30:43;7.97;;;5.55;;
17510;SDS011;8873;48.818;9.422;2023-05-15T00:33:10;8.50;;;5.50;;
17510;SDS011;8873;48.818;9.422;2023-05-15T00:35:38;10.20;;;5.60;;
17510;SDS011;8873;48.818;9.422;2023-05-15T00:38:06;8.80;;;6.10;;
17510;SDS011;8873;48.818;9.422;2023-05-15T00:40:35;9.63;;;5.68;;
17510;SDS011;8873;48.818;9.422;2023-05-15T00:43:04;8.70;;;6.07;;
17510;SDS011;8873;48.818;9.422;2023-05-15T00:45:32;12.13;;;6.68;;
17510;SDS011;8873;48.818;9.422;2023-05-15T00:48:00;8.00;;;5.53;;
17510;SDS011;8873;48.818;9.422;2023-05-15T00:50:28;6.15;;;4.85;;
17510;SDS011;8873;48.818;9.422;2023-05-15T00:52:56;8.60;;;5.78;;
17510;SDS011;8873;48.818;9.422;2023-05-15T00:55:23;8.82;;;5.55;;
17510;SDS011;8873;48.818;9.422;2023-05-15T00:57:54;7.32;;;5.50;;
17510;SDS011;8873;48.818;9.422;2023-05-15T01:00:22;9.20;;;5.55;;
17510;SDS011;8873;48.818;9.422;2023-05-15T01:02:51;9.30;;;5.65;;
17510;SDS011;8873;48.818;9.422;2023-05-15T01:05:18;8.80;;;5.90;;
17510;SDS011;8873;48.818;9.422;2023-05-15T01:07:48;11.30;;;5.70;;
17510;SDS011;8873;48.818;9.422;2023-05-15T01:10:18;9.27;;;5.68;;
17510;SDS011;8873;48.818;9.422;2023-05-15T01:12:47;7.68;;;5.38;;
17510;SDS011;8873;48.818;9.422;2023-05-15T01:15:18;7.07;;;5.38;;
17510;SDS011;8873;48.818;9.422;2023-05-15T01:17:45;7.55;;;5.25;;
17510;SDS011;8873;48.818;9.422;2023-05-15T01:20:13;8.35;;;5.47;;
17510;SDS011;8873;48.818;9.422;2023-05-15T01:22:45;7.93;;;5.60;;
17510;SDS011;8873;48.818;9.422;2023-05-15T01:28:03;8.02;;;5.72;;
17510;SDS011;8873;48.818;9.422;2023-05-15T01:30:32;10.95;;;5.57;;
17510;SDS011;8873;48.818;9.422;2023-05-15T01:33:02;10.57;;;5.57;;
17510;SDS011;8873;48.818;9.422;2023-05-15T01:35:32;8.95;;;5.65;;
17510;SDS011;8873;48.818;9.422;2023-05-15T01:38:16;8.48;;;5.18;;
17510;SDS011;8873;48.818;9.422;2023-05-15T01:40:45;8.50;;;5.63;;
17510;SDS011;8873;48.818;9.422;2023-05-15T01:43:17;9.00;;;5.60;;
17510;SDS011;8873;48.818;9.422;2023-05-15T01:45:45;14.50;;;5.72;;
17510;SDS011;8873;48.818;9.422;2023-05-15T01:48:12;8.77;;;5.80;;
17510;SDS011;8873;48.818;9.422;2023-05-15T01:50:41;7.90;;;5.68;;
17510;SDS011;8873;48.818;9.422;2023-05-15T01:53:09;7.30;;;5.57;;
17510;SDS011;8873;48.818;9.422;2023-05-15T01:55:38;10.45;;;6.65;;
17510;SDS011;8873;48.818;9.422;2023-05-15T01:58:06;10.20;;;5.85;;
17510;SDS011;8873;48.818;9.422;2023-05-15T02:00:36;9.55;;;6.50;;
17510;SDS011;8873;48.818;9.422;2023-05-15T02:03:04;11.13;;;6.18;;
17510;SDS011;8873;48.818;9.422;2023-05-15T02:05:33;9.18;;;6.35;;
17510;SDS011;8873;48.818;9.422;2023-05-15T02:08:01;10.65;;;6.00;;
17510;SDS011;8873;48.818;9.422;2023-05-15T02:10:29;7.80;;;5.93;;
17510;SDS011;8873;48.818;9.422;2023-05-15T02:12:57;9.68;;;6.03;;
17510;SDS011;8873;48.818;9.422;2023-05-15T02:15:24;8.27;;;6.00;;
17510;SDS011;8873;48.818;9.422;2023-05-15T02:17:55;8.02;;;6.00;;
17510;SDS011;8873;48.818;9.422;2023-05-15T02:20:22;9.10;;;6.00;;
17510;SDS011;8873;48.818;9.422;2023-05-15T02:22:50;7.60;;;6.03;;
17510;SDS011;8873;48.818;9.422;2023-05-15T02:25:18;8.07;;;5.30;;
17510;SDS011;8873;48.818;9.422;2023-05-15T02:27:50;8.98;;;5.80;;
17510;SDS011;8873;48.818;9.422;2023-05-15T02:30:22;12.82;;;6.65;;
17510;SDS011;8873;48.818;9.422;2023-05-15T02:32:58;14.38;;;6.50;;
17510;SDS011;8873;48.818;9.422;2023-05-15T02:35:30;14.38;;;6.68;;
17510;SDS011;8873;48.818;9.422;2023-05-15T02:37:59;10.93;;;6.43;;
17510;SDS011;8873;48.818;9.422;2023-05-15T02:40:27;9.68;;;6.93;;
17510;SDS011;8873;48.818;9.422;2023-05-15T02:42:55;11.30;;;7.10;;
17510;SDS011;8873;48.818;9.422;2023-05-15T02:45:23;13.20;;;7.40;;
17510;SDS011;8873;48.818;9.422;2023-05-15T02:47:52;13.15;;;8.15;;
17510;SDS011;8873;48.818;9.422;2023-05-15T02:50:21;11.80;;;7.00;;
17510;SDS011;8873;48.818;9.422;2023-05-15T02:52:49;12.82;;;7.32;;
17510;SDS011;8873;48.818;9.422;2023-05-15T02:55:17;11.32;;;7.25;;
17510;SDS011;8873;48.818;9.422;2023-05-15T02:57:44;13.43;;;6.93;;
17510;SDS011;8873;48.818;9.422;2023-05-15T03:00:13;13.13;;;7.70;;
17510;SDS011;8873;48.818;9.422;2023-05-15T03:02:41;13.82;;;7.15;;
17510;SDS011;8873;48.818;9.422;2023-05-15T03:05:08;12.70;;;7.40;;
17510;SDS011;8873;48.818;9.422;2023-05-15T03:07:37;11.15;;;7.13;;
17510;SDS011;8873;48.818;9.422;2023-05-15T03:10:06;11.32;;;7.43;;
17510;SDS011;8873;48.818;9.422;2023-05-15T03:12:34;11.80;;;6.85;;
17510;SDS011;8873;48.818;9.422;2023-05-15T03:15:02;15.40;;;7.50;;
17510;SDS011;8873;48.818;9.422;2023-05-15T03:17:29;10.43;;;6.97;;
17510;SDS011;8873;48.818;9.422;2023-05-15T03:19:57;15.10;;;7.32;;
17510;SDS011;8873;48.818;9.422;2023-05-15T03:22:25;13.80;;;7.72;;
17510;SDS011;8873;48.818;9.422;2023-05-15T03:24:54;13.25;;;7.15;;
17510;SDS011;8873;48.818;9.422;2023-05-15T03:27:22;12.68;;;6.75;;
17510;SDS011;8873;48.818;9.422;2023-05-15T03:29:49;12.70;;;6.97;;
17510;SDS011;8873;48.818;9.422;2023-05-15T03:32:17;10.95;;;7.63;;
17510;SDS011;8873;48.818;9.422;2023-05-15T03:34:44;12.30;;;7.20;;
17510;SDS011;8873;48.818;9.422;2023-05-15T03:37:12;12.10;;;7.10;;
17510;SDS011;8873;48.818;9.422;2023-05-15T03:39:40;10.98;;;7.07;;
17510;SDS011;8873;48.818;9.422;2023-05-15T03:42:09;13.05;;;6.93;;
17510;SDS011;8873;48.818;9.422;2023-05-15T03:44:36;11.73;;;7.65;;
17510;SDS011;8873;48.818;9.422;2023-05-15T03:47:04;11.05;;;6.38;;
17510;SDS011;8873;48.818;9.422;2023-05-15T03:49:32;12.57;;;7.32;;
17510;SDS011;8873;48.818;9.422;2023-05-15T03:52:00;10.45;;;7.00;;
17510;SDS011;8873;48.818;9.422;2023-05-15T03:54:27;12.27;;;7.05;;
17510;SDS011;8873;48.818;9.422;2023-05-15T03:56:55;12.13;;;7.30;;
17510;SDS011;8873;48.818;9.422;2023-05-15T03:59:24;12.60;;;6.93;;
17510;SDS011;8873;48.818;9.422;2023-05-15T04:01:51;12.05;;;7.97;;
17510;SDS011;8873;48.818;9.422;2023-05-15T04:04:30;9.35;;;6.70;;
17510;SDS011;8873;48.818;9.422;2023-05-15T04:06:58;10.82;;;6.97;;
17510;SDS011;8873;48.818;9.422;2023-05-15T04:09:25;13.02;;;7.25;;
17510;SDS011;8873;48.818;9.422;2023-05-15T04:11:53;11.50;;;7.30;;
17510;SDS011;8873;48.818;9.422;2023-05-15T04:14:21;12.45;;;7.40;;
17510;SDS011;8873;48.818;9.422;2023-05-15T04:16:49;12.63;;;7.65;;
17510;SDS011;8873;48.818;9.422;2023-05-15T04:19:17;15.55;;;7.85;;
17510;SDS011;8873;48.818;9.422;2023-05-15T04:21:45;17.30;;;8.07;;
17510;SDS011;8873;48.818;9.422;2023-05-15T04:24:12;15.98;;;8.32;;
17510;SDS011;8873;48.818;9.422;2023-05-15T04:26:40;13.60;;;7.72;;
17510;SDS011;8873;48.818;9.422;2023-05-15T04:29:07;12.43;;;7.90;;
17510;SDS011;8873;48.818;9.422;2023-05-15T04:31:35;12.88;;;7.40;;
17510;SDS011;8873;48.818;9.422;2023-05-15T04:34:05;12.77;;;8.27;;
17510;SDS011;8873;48.818;9.422;2023-05-15T04:36:32;11.85;;;7.68;;
17510;SDS011;8873;48.818;9.422;2023-05-15T04:39:00;13.85;;;7.53;;
17510;SDS011;8873;48.818;9.422;2023-05-15T04:41:27;12.55;;;7.75;;
17510;SDS011;8873;48.818;9.422;2023-05-15T04:43:55;14.18;;;7.68;;
17510;SDS011;8873;48.818;9.422;2023-05-15T04:46:22;13.68;;;7.97;;
17510;SDS011;8873;48.818;9.422;2023-05-15T04:48:50;17.75;;;8.38;;
17510;SDS011;8873;48.818;9.422;2023-05-15T04:51:19;19.95;;;9.63;;
17510;SDS011;8873;48.818;9.422;2023-05-15T04:53:46;13.43;;;7.25;;
17510;SDS011;8873;48.818;9.422;2023-05-15T04:56:14;14.00;;;8.57;;
17510;SDS011;8873;48.818;9.422;2023-05-15T04:58:41;13.88;;;7.35;;
17510;SDS011;8873;48.818;9.422;2023-05-15T05:01:09;11.30;;;7.45;;
17510;SDS011;8873;48.818;9.422;2023-05-15T05:03:36;13.02;;;7.38;;
17510;SDS011;8873;48.818;9.422;2023-05-15T05:06:04;13.50;;;8.00;;
17510;SDS011;8873;48.818;9.422;2023-05-15T05:08:33;12.10;;;6.93;;
17510;SDS011;8873;48.818;9.422;2023-05-15T05:11:00;13.27;;;8.10;;
17510;SDS011;8873;48.818;9.422;2023-05-15T05:13:28;12.02;;;8.07;;
17510;SDS011;8873;48.818;9.422;2023-05-15T05:15:55;12.98;;;8.20;;
17510;SDS011;8873;48.818;9.422;2023-05-15T05:18:23;16.08;;;8.77;;
17510;SDS011;8873;48.818;9.422;2023-05-15T05:20:57;12.57;;;8.30;;
17510;SDS011;8873;48.818;9.422;2023-05-15T05:23:24;18.77;;;9.32;;
17510;SDS011;8873;48.818;9.422;2023-05-15T05:25:53;14.60;;;9.35;;
17510;SDS011;8873;48.818;9.422;2023-05-15T05:28:21;14.15;;;8.68;;
17510;SDS011;8873;48.818;9.422;2023-05-15T05:30:50;14.32;;;8.60;;
17510;SDS011;8873;48.818;9.422;2023-05-15T05:33:41;13.57;;;8.73;;
17510;SDS011;8873;48.818;9.422;2023-05-15T05:36:09;20.52;;;8.63;;
17510;SDS011;8873;48.818;9.422;2023-05-15T05:38:37;14.07;;;8.55;;
17510;SDS011;8873;48.818;9.422;2023-05-15T05:41:06;16.83;;;7.95;;
17510;SDS011;8873;48.818;9.422;2023-05-15T05:43:33;12.70;;;7.15;;
17510;SDS011;8873;48.818;9.422;2023-05-15T05:46:01;13.95;;;7.43;;
17510;SDS011;8873;48.818;9.422;2023-05-15T05:48:28;12.10;;;7.60;;
17510;SDS011;8873;48.818;9.422;2023-05-15T05:50:56;11.63;;;7.93;;
17510;SDS011;8873;48.818;9.422;2023-05-15T05:53:23;11.23;;;7.63;;
17510;SDS011;8873;48.818;9.422;2023-05-15T05:55:51;13.15;;;7.22;;
17510;SDS011;8873;48.818;9.422;2023-05-15T05:58:20;11.60;;;7.97;;
17510;SDS011;8873;48.818;9.422;2023-05-15T06:00:51;14.13;;;7.97;;
17510;SDS011;8873;48.818;9.422;2023-05-15T06:03:19;12.73;;;7.70;;
17510;SDS011;8873;48.818;9.422;2023-05-15T06:05:47;12.65;;;7.88;;
17510;SDS011;8873;48.818;9.422;2023-05-15T06:08:14;17.65;;;8.38;;
17510;SDS011;8873;48.818;9.422;2023-05-15T06:10:42;12.02;;;8.05;;
17510;SDS011;8873;48.818;9.422;2023-05-15T06:13:09;16.30;;;7.85;;
17510;SDS011;8873;48.818;9.422;2023-05-15T06:15:38;12.60;;;8.20;;
17510;SDS011;8873;48.818;9.422;2023-05-15T06:18:05;12.23;;;7.97;;
17510;SDS011;8873;48.818;9.422;2023-05-15T06:20:33;12.48;;;7.85;;
17510;SDS011;8873;48.818;9.422;2023-05-15T06:23:01;14.68;;;7.93;;
17510;SDS011;8873;48.818;9.422;2023-05-15T06:25:28;11.75;;;7.68;;
17510;SDS011;8873;48.818;9.422;2023-05-15T06:27:58;13.52;;;7.78;;
17510;SDS011;8873;48.818;9.422;2023-05-15T06:30:26;12.85;;;7.75;;
17510;SDS011;8873;48.818;9.422;2023-05-15T06:32:55;12.02;;;7.75;;
17510;SDS011;8873;48.818;9.422;2023-05-15T06:35:22;13.13;;;7.13;;
17510;SDS011;8873;48.818;9.422;2023-05-15T06:37:50;12.25;;;8.57;;
17510;SDS011;8873;48.818;9.422;2023-05-15T06:40:21;11.02;;;7.63;;
17510;SDS011;8873;48.818;9.422;2023-05-15T06:42:49;11.35;;;7.40;;
17510;SDS011;8873;48.818;9.422;2023-05-15T06:45:19;10.38;;;7.78;;
17510;SDS011;8873;48.818;9.422;2023-05-15T06:47:46;12.48;;;7.93;;
17510;SDS011;8873;48.818;9.422;2023-05-15T06:50:15;12.10;;;8.32;;
17510;SDS011;8873;48.818;9.422;2023-05-15T06:52:45;14.15;;;7.95;;
17510;SDS011;8873;48.818;9.422;2023-05-15T06:55:12;13.45;;;8.05;;
17510;SDS011;8873;48.818;9.422;2023-05-15T06:57:40;12.20;;;7.95;;
17510;SDS011;8873;48.818;9.422;2023-05-15T07:00:08;11.68;;;7.85;;
17510;SDS011;8873;48.818;9.422;2023-05-15T07:02:42;10.13;;;7.53;;
17510;SDS011;8873;48.818;9.422;2023-05-15T07:05:12;13.00;;;7.60;;
17510;SDS011;8873;48.818;9.422;2023-05-15T07:07:41;14.10;;;8.10;;
17510;SDS011;8873;48.818;9.422;2023-05-15T07:10:09;10.45;;;7.93;;
17510;SDS011;8873;48.818;9.422;2023-05-15T07:12:36;11.20;;;7.43;;
17510;SDS011;8873;48.818;9.422;2023-05-15T07:15:04;11.00;;;7.53;;
17510;SDS011;8873;48.818;9.422;2023-05-15T07:17:32;11.07;;;7.78;;
17510;SDS011;8873;48.818;9.422;2023-05-15T07:20:00;11.25;;;7.72;;
17510;SDS011;8873;48.818;9.422;2023-05-15T07:22:27;13.52;;;7.85;;
17510;SDS011;8873;48.818;9.422;2023-05-15T07:24:57;12.23;;;7.55;;
17510;SDS011;8873;48.818;9.422;2023-05-15T07:27:25;12.80;;;7.55;;
17510;SDS011;8873;48.818;9.422;2023-05-15T07:29:53;8.85;;;7.47;;
17510;SDS011;8873;48.818;9.422;2023-05-15T07:32:20;9.57;;;7.45;;
17510;SDS011;8873;48.818;9.422;2023-05-15T07:34:48;12.07;;;7.13;;
17510;SDS011;8873;48.818;9.422;2023-05-15T07:37:15;10.55;;;7.35;;
17510;SDS011;8873;48.818;9.422;2023-05-15T07:39:43;10.38;;;7.40;;
17510;SDS011;8873;48.818;9.422;2023-05-15T07:42:13;10.70;;;7.03;;
17510;SDS011;8873;48.818;9.422;2023-05-15T07:44:40;12.35;;;7.15;;
17510;SDS011;8873;48.818;9.422;2023-05-15T07:47:11;8.25;;;6.13;;
17510;SDS011;8873;48.818;9.422;2023-05-15T07:49:40;12.45;;;6.30;;
17510;SDS011;8873;48.818;9.422;2023-05-15T07:52:07;6.40;;;5.40;;
17510;SDS011;8873;48.818;9.422;2023-05-15T07:54:35;10.10;;;6.32;;
17510;SDS011;8873;48.818;9.422;2023-05-15T07:57:04;9.30;;;6.20;;
17510;SDS011;8873;48.818;9.422;2023-05-15T07:59:33;7.07;;;5.65;;
17510;SDS011;8873;48.818;9.422;2023-05-15T08:02:01;10.27;;;5.72;;
17510;SDS011;8873;48.818;9.422;2023-05-15T08:04:28;7.22;;;5.60;;
17510;SDS011;8873;48.818;9.422;2023-05-15T08:06:56;5.95;;;5.38;;
17510;SDS011;8873;48.818;9.422;2023-05-15T08:09:24;6.50;;;5.57;;
17510;SDS011;8873;48.818;9.422;2023-05-15T08:11:54;6.57;;;5.50;;
17510;SDS011;8873;48.818;9.422;2023-05-15T08:14:21;5.53;;;4.95;;
17510;SDS011;8873;48.818;9.422;2023-05-15T08:16:50;5.80;;;5.07;;
17510;SDS011;8873;48.818;9.422;2023-05-15T08:19:17;6.15;;;5.22;;
17510;SDS011;8873;48.818;9.422;2023-05-15T08:21:47;7.75;;;5.50;;
17510;SDS011;8873;48.818;9.422;2023-05-15T08:24:17;6.63;;;5.30;;
17510;SDS011;8873;48.818;9.422;2023-05-15T08:26:45;5.63;;;4.90;;
17510;SDS011;8873;48.818;9.422;2023-05-15T08:29:12;8.98;;;4.90;;
17510;SDS011;8873;48.818;9.422;2023-05-15T08:31:40;11.68;;;5.22;;
17510;SDS011;8873;48.818;9.422;2023-05-15T08:34:09;9.02;;;5.70;;
17510;SDS011;8873;48.818;9.422;2023-05-15T08:36:36;5.55;;;4.90;;
17510;SDS011;8873;48.818;9.422;2023-05-15T08:39:04;8.07;;;5.55;;
17510;SDS011;8873;48.818;9.422;2023-05-15T08:41:34;5.60;;;4.90;;
17510;SDS011;8873;48.818;9.422;2023-05-15T08:44:07;6.00;;;4.38;;
17510;SDS011;8873;48.818;9.422;2023-05-15T08:46:35;4.30;;;4.00;;
17510;SDS011;8873;48.818;9.422;2023-05-15T08:49:03;5.25;;;4.40;;
17510;SDS011;8873;48.818;9.422;2023-05-15T08:51:36;5.00;;;4.25;;
17510;SDS011;8873;48.818;9.422;2023-05-15T08:54:04;5.03;;;4.53;;
17510;SDS011;8873;48.818;9.422;2023-05-15T08:56:32;5.07;;;4.35;;
17510;SDS011;8873;48.818;9.422;2023-05-15T08:58:59;7.70;;;4.82;;
17510;SDS011;8873;48.818;9.422;2023-05-15T09:01:27;6.78;;;5.00;;
17510;SDS011;8873;48.818;9.422;2023-05-15T09:03:55;6.05;;;4.47;;
17510;SDS011;8873;48.818;9.422;2023-05-15T09:06:22;5.78;;;5.05;;
17510;SDS011;8873;48.818;9.422;2023-05-15T09:08:52;6.10;;;5.05;;
17510;SDS011;8873;48.818;9.422;2023-05-15T09:11:22;7.63;;;5.28;;
17510;SDS011;8873;48.818;9.422;2023-05-15T09:13:50;6.03;;;5.15;;
17510;SDS011;8873;48.818;9.422;2023-05-15T09:16:17;6.35;;;4.35;;
17510;SDS011;8873;48.818;9.422;2023-05-15T09:18:46;6.57;;;4.85;;
17510;SDS011;8873;48.818;9.422;2023-05-15T09:21:22;5.28;;;4.78;;
17510;SDS011;8873;48.818;9.422;2023-05-15T09:23:52;5.53;;;4.90;;
17510;SDS011;8873;48.818;9.422;2023-05-15T09:26:19;5.07;;;4.57;;
17510;SDS011;8873;48.818;9.422;2023-05-15T09:28:47;4.85;;;4.32;;
17510;SDS011;8873;48.818;9.422;2023-05-15T09:31:17;8.98;;;4.70;;
17510;SDS011;8873;48.818;9.422;2023-05-15T09:33:45;5.90;;;4.35;;
17510;SDS011;8873;48.818;9.422;2023-05-15T09:36:13;6.28;;;5.25;;
17510;SDS011;8873;48.818;9.422;2023-05-15T09:38:47;6.78;;;4.97;;
17510;SDS011;8873;48.818;9.422;2023-05-15T09:41:16;6.47;;;4.13;;
17510;SDS011;8873;48.818;9.422;2023-05-15T09:43:51;6.20;;;4.18;;
17510;SDS011;8873;48.818;9.422;2023-05-15T09:46:18;7.50;;;4.68;;
17510;SDS011;8873;48.818;9.422;2023-05-15T09:48:46;5.18;;;4.60;;
17510;SDS011;8873;48.818;9.422;2023-05-15T09:51:14;4.72;;;4.35;;
17510;SDS011;8873;48.818;9.422;2023-05-15T09:53:46;5.95;;;4.50;;
17510;SDS011;8873;48.818;9.422;2023-05-15T09:56:14;4.63;;;4.10;;
17510;SDS011;8873;48.818;9.422;2023-05-15T09:58:53;4.75;;;3.55;;
17510;SDS011;8873;48.818;9.422;2023-05-15T10:01:23;4.90;;;4.07;;
17510;SDS011;8873;48.818;9.422;2023-05-15T10:03:58;5.10;;;4.07;;
17510;SDS011;8873;48.818;9.422;2023-05-15T10:06:26;4.05;;;3.63;;
17510;SDS011;8873;48.818;9.422;2023-05-15T10:08:56;4.13;;;3.72;;
17510;SDS011;8873;48.818;9.422;2023-05-15T10:11:24;4.45;;;4.05;;
17510;SDS011;8873;48.818;9.422;2023-05-15T10:13:53;3.83;;;3.63;;
17510;SDS011;8873;48.818;9.422;2023-05-15T10:16:21;4.60;;;4.20;;
17510;SDS011;8873;48.818;9.422;2023-05-15T10:18:49;3.75;;;3.45;;
17510;SDS011;8873;48.818;9.422;2023-05-15T10:21:17;5.65;;;4.45;;
17510;SDS011;8873;48.818;9.422;2023-05-15T10:23:46;3.90;;;3.65;;
17510;SDS011;8873;48.818;9.422;2023-05-15T10:26:19;4.72;;;4.00;;
17510;SDS011;8873;48.818;9.422;2023-05-15T10:28:49;5.75;;;4.00;;
17510;SDS011;8873;48.818;9.422;2023-05-15T10:31:19;4.65;;;3.60;;
17510;SDS011;8873;48.818;9.422;2023-05-15T10:33:47;7.30;;;3.65;;
17510;SDS011;8873;48.818;9.422;2023-05-15T10:36:14;10.15;;;3.95;;
17510;SDS011;8873;48.818;9.422;2023-05-15T10:38:43;4.53;;;3.47;;
17510;SDS011;8873;48.818;9.422;2023-05-15T10:41:10;5.38;;;3.72;;
17510;SDS011;8873;48.818;9.422;2023-05-15T10:43:43;5.95;;;3.90;;
17510;SDS011;8873;48.818;9.422;2023-05-15T10:46:11;6.00;;;3.80;;
17510;SDS011;8873;48.818;9.422;2023-05-15T10:48:40;5.68;;;4.10;;
17510;SDS011;8873;48.818;9.422;2023-05-15T10:51:12;4.13;;;3.53;;
17510;SDS011;8873;48.818;9.422;2023-05-15T10:53:41;4.32;;;4.03;;
17510;SDS011;8873;48.818;9.422;2023-05-15T10:56:11;5.13;;;4.25;;
17510;SDS011;8873;48.818;9.422;2023-05-15T11:01:30;4.20;;;3.80;;
17510;SDS011;8873;48.818;9.422;2023-05-15T11:04:10;3.88;;;3.33;;
17510;SDS011;8873;48.818;9.422;2023-05-15T11:06:40;4.40;;;3.25;;
17510;SDS011;8873;48.818;9.422;2023-05-15T11:11:56;4.50;;;4.10;;
17510;SDS011;8873;48.818;9.422;2023-05-15T11:14:24;4.20;;;3.83;;
17510;SDS011;8873;48.818;9.422;2023-05-15T11:16:55;4.03;;;3.63;;
17510;SDS011;8873;48.818;9.422;2023-05-15T11:19:30;4.30;;;3.90;;
17510;SDS011;8873;48.818;9.422;2023-05-15T11:21:59;5.88;;;3.60;;
17510;SDS011;8873;48.818;9.422;2023-05-15T11:24:27;3.78;;;3.47;;
17510;SDS011;8873;48.818;9.422;2023-05-15T11:26:58;3.70;;;3.40;;
17510;SDS011;8873;48.818;9.422;2023-05-15T11:29:26;7.28;;;3.83;;
17510;SDS011;8873;48.818;9.422;2023-05-15T11:31:54;3.90;;;3.47;;
17510;SDS011;8873;48.818;9.422;2023-05-15T11:34:29;6.65;;;3.33;;
17510;SDS011;8873;48.818;9.422;2023-05-15T11:36:57;6.18;;;3.15;;
17510;SDS011;8873;48.818;9.422;2023-05-15T11:39:27;3.55;;;3.25;;
17510;SDS011;8873;48.818;9.422;2023-05-15T11:41:55;4.70;;;2.90;;
17510;SDS011;8873;48.818;9.422;2023-05-15T11:44:25;3.22;;;3.03;;
17510;SDS011;8873;48.818;9.422;2023-05-15T11:46:53;3.45;;;3.20;;
17510;SDS011;8873;48.818;9.422;2023-05-15T11:49:21;7.70;;;3.13;;
17510;SDS011;8873;48.818;9.422;2023-05-15T11:51:52;3.30;;;3.00;;
17510;SDS011;8873;48.818;9.422;2023-05-15T11:54:21;7.18;;;3.28;;
17510;SDS011;8873;48.818;9.422;2023-05-15T11:56:50;2.47;;;2.38;;
17510;SDS011;8873;48.818;9.422;2023-05-15T11:59:18;4.68;;;2.17;;
17510;SDS011;8873;48.818;9.422;2023-05-15T12:01:47;2.55;;;2.38;;
17510;SDS011;8873;48.818;9.422;2023-05-15T12:04:15;2.92;;;2.30;;
17510;SDS011;8873;48.818;9.422;2023-05-15T12:06:44;2.35;;;2.25;;
17510;SDS011;8873;48.818;9.422;2023-05-15T12:09:16;2.97;;;2.67;;
17510;SDS011;8873;48.818;9.422;2023-05-15T12:11:48;4.38;;;2.42;;
17510;SDS011;8873;48.818;9.422;2023-05-15T12:14:24;2.05;;;1.95;;
17510;SDS011;8873;48.818;9.422;2023-05-15T12:16:52;2.85;;;2.08;;
17510;SDS011;8873;48.818;9.422;2023-05-15T12:19:26;2.25;;;2.15;;
17510;SDS011;8873;48.818;9.422;2023-05-15T12:21:53;1.88;;;1.77;;
17510;SDS011;8873;48.818;9.422;2023-05-15T12:24:25;2.70;;;2.20;;
17510;SDS011;8873;48.818;9.422;2023-05-15T12:26:53;2.35;;;2.00;;
17510;SDS011;8873;48.818;9.422;2023-05-15T12:29:22;3.22;;;2.10;;
17510;SDS011;8873;48.818;9.422;2023-05-15T12:31:50;3.10;;;2.20;;
17510;SDS011;8873;48.818;9.422;2023-05-15T12:34:19;2.22;;;2.13;;
17510;SDS011;8873;48.818;9.422;2023-05-15T12:36:47;2.22;;;2.10;;
17510;SDS011;8873;48.818;9.422;2023-05-15T12:39:15;2.17;;;2.08;;
17510;SDS011;8873;48.818;9.422;2023-05-15T12:41:43;2.95;;;2.28;;
17510;SDS011;8873;48.818;9.422;2023-05-15T12:44:14;2.70;;;2.50;;
17510;SDS011;8873;48.818;9.422;2023-05-15T12:46:42;2.53;;;2.30;;
17510;SDS011;8873;48.818;9.422;2023-05-15T12:49:09;4.00;;;2.20;;
17510;SDS011;8873;48.818;9.422;2023-05-15T12:51:41;2.60;;;2.50;;
17510;SDS011;8873;48.818;9.422;2023-05-15T12:54:15;3.47;;;2.28;;
17510;SDS011;8873;48.818;9.422;2023-05-15T12:56:45;3.60;;;2.30;;
17510;SDS011;8873;48.818;9.422;2023-05-15T12:59:13;2.90;;;2.70;;
17510;SDS011;8873;48.818;9.422;2023-05-15T13:01:40;2.58;;;2.38;;
17510;SDS011;8873;48.818;9.422;2023-05-15T13:04:08;2.28;;;2.17;;
17510;SDS011;8873;48.818;9.422;2023-05-15T13:06:39;2.30;;;2.20;;
17510;SDS011;8873;48.818;9.422;2023-05-15T13:09:12;2.50;;;2.30;;
17510;SDS011;8873;48.818;9.422;2023-05-15T13:11:42;3.55;;;2.17;;
17510;SDS011;8873;48.818;9.422;2023-05-15T13:14:11;2.53;;;2.35;;
17510;SDS011;8873;48.818;9.422;2023-05-15T13:16:43;3.85;;;2.72;;
17510;SDS011;8873;48.818;9.422;2023-05-15T13:19:12;3.17;;;2.70;;
17510;SDS011;8873;48.818;9.422;2023-05-15T13:21:41;2.92;;;2.65;;
17510;SDS011;8873;48.818;9.422;2023-05-15T13:24:09;3.63;;;3.10;;
17510;SDS011;8873;48.818;9.422;2023-05-15T13:26:36;2.95;;;2.75;;
17510;SDS011;8873;48.818;9.422;2023-05-15T13:29:04;3.28;;;3.00;;
17510;SDS011;8873;48.818;9.422;2023-05-15T13:31:33;3.45;;;3.15;;
17510;SDS011;8873;48.818;9.422;2023-05-15T13:34:00;3.53;;;3.03;;
17510;SDS011;8873;48.818;9.422;2023-05-15T13:36:28;3.83;;;3.20;;
17510;SDS011;8873;48.818;9.422;2023-05-15T13:38:56;3.47;;;3.28;;
17510;SDS011;8873;48.818;9.422;2023-05-15T13:41:23;3.33;;;2.85;;
17510;SDS011;8873;48.818;9.422;2023-05-15T13:43:51;3.53;;;3.28;;
17510;SDS011;8873;48.818;9.422;2023-05-15T13:46:19;3.35;;;3.08;;
17510;SDS011;8873;48.818;9.422;2023-05-15T13:48:48;4.68;;;3.22;;
17510;SDS011;8873;48.818;9.422;2023-05-15T13:51:18;4.18;;;3.10;;
17510;SDS011;8873;48.818;9.422;2023-05-15T13:53:45;5.05;;;2.92;;
17510;SDS011;8873;48.818;9.422;2023-05-15T13:56:13;3.58;;;3.10;;
17510;SDS011;8873;48.818;9.422;2023-05-15T13:58:43;5.45;;;3.20;;
17510;SDS011;8873;48.818;9.422;2023-05-15T14:01:10;3.22;;;3.03;;
17510;SDS011;8873;48.818;9.422;2023-05-15T14:03:40;3.40;;;2.63;;
17510;SDS011;8873;48.818;9.422;2023-05-15T14:06:09;2.70;;;2.50;;
17510;SDS011;8873;48.818;9.422;2023-05-15T14:08:36;3.92;;;2.80;;
17510;SDS011;8873;48.818;9.422;2023-05-15T14:11:04;2.97;;;2.65;;
17510;SDS011;8873;48.818;9.422;2023-05-15T14:13:32;3.00;;;2.80;;
17510;SDS011;8873;48.818;9.422;2023-05-15T14:15:59;4.95;;;2.80;;
17510;SDS011;8873;48.818;9.422;2023-05-15T14:18:27;4.00;;;2.90;;
17510;SDS011;8873;48.818;9.422;2023-05-15T14:20:57;8.15;;;2.60;;
17510;SDS011;8873;48.818;9.422;2023-05-15T14:23:26;3.80;;;2.78;;
17510;SDS011;8873;48.818;9.422;2023-05-15T14:25:53;3.65;;;2.90;;
17510;SDS011;8873;48.818;9.422;2023-05-15T14:28:21;2.55;;;2.45;;
17510;SDS011;8873;48.818;9.422;2023-05-15T14:30:48;2.88;;;2.45;;
17510;SDS011;8873;48.818;9.422;2023-05-15T14:33:16;2.58;;;2.45;;
17510;SDS011;8873;48.818;9.422;2023-05-15T14:35:44;2.90;;;2.33;;
17510;SDS011;8873;48.818;9.422;2023-05-15T14:38:11;3.03;;;2.72;;
17510;SDS011;8873;48.818;9.422;2023-05-15T14:40:40;3.13;;;2.92;;
17510;SDS011;8873;48.818;9.422;2023-05-15T14:43:08;4.57;;;3.03;;
17510;SDS011;8873;48.818;9.422;2023-05-15T14:45:35;3.60;;;3.40;;
17510;SDS011;8873;48.818;9.422;2023-05-15T14:48:03;4.72;;;3.00;;
17510;SDS011;8873;48.818;9.422;2023-05-15T14:50:31;3.03;;;2.70;;
17510;SDS011;8873;48.818;9.422;2023-05-15T14:52:58;2.92;;;2.78;;
17510;SDS011;8873;48.818;9.422;2023-05-15T14:55:26;3.63;;;3.33;;
17510;SDS011;8873;48.818;9.422;2023-05-15T14:57:56;3.10;;;2.90;;
17510;SDS011;8873;48.818;9.422;2023-05-15T15:00:38;3.55;;;2.90;;
17510;SDS011;8873;48.818;9.422;2023-05-15T15:03:06;3.28;;;3.08;;
17510;SDS011;8873;48.818;9.422;2023-05-15T15:05:33;4.75;;;2.80;;
17510;SDS011;8873;48.818;9.422;2023-05-15T15:08:02;5.25;;;2.88;;
17510;SDS011;8873;48.818;9.422;2023-05-15T15:10:39;3.72;;;3.15;;
17510;SDS011;8873;48.818;9.422;2023-05-15T15:13:11;3.45;;;2.67;;